Time;durP1;ratioP1;P1;durP2;ratioP2;P2;SDS_P1;SDS_P2;PMS_P1;PMS_P2;Temp;Humidity;BMP_temperature;BMP_pressure;BME280_temperature;BME280_humidity;BME280_pressure;Samples;Min_cycle;Max_cycle;Signal;HPM_P1;HPM_P2
2021/05/28 00:01:19;;;;;;;8.50;7.90;;;;;;;8.08;100.00;98452.25;4981793;28;20670;-70
2021/05/28 00:03:47;;;;;;;8.77;7.97;;;;;;;8.15;100.00;98447.25;4980947;28;20789;-72
2021/05/28 00:06:15;;;;;;;8.30;7.70;;;;;;;8.11;100.00;98450.13;4985053;28;20704;-71
2021/05/28 00:08:42;;;;;;;8.30;7.60;;;;;;;8.13;100.00;98449.16;4981626;28;20221;-71
2021/05/28 00:11:10;;;;;;;9.13;8.33;;;;;;;8.11;100.00;98450.13;4982625;28;20206;-70
2021/05/28 00:13:37;;;;;;;9.30;8.50;;;;;;;8.08;100.00;98445.13;4977145;28;20234;-71
2021/05/28 00:16:06;;;;;;;9.40;8.47;;;;;;;8.09;100.00;98444.16;4981932;28;20351;-72
2021/05/28 00:18:34;;;;;;;9.43;8.73;;;;;;;8.14;100.00;98446.41;4981644;28;20293;-72
2021/05/28 00:21:02;;;;;;;8.80;8.07;;;;;;;8.18;100.00;98439.88;4978002;28;20237;-70
2021/05/28 00:23:33;;;;;;;8.73;8.13;;;;;;;8.13;100.00;98444.75;4982179;28;20261;-72
2021/05/28 00:26:01;;;;;;;9.53;8.83;;;;;;;8.15;100.00;98444.63;4979649;28;20226;-71
2021/05/28 00:28:28;;;;;;;9.00;8.30;;;;;;;8.25;100.00;98440.16;4981595;28;20241;-71
2021/05/28 00:30:56;;;;;;;9.97;8.97;;;;;;;8.17;100.00;98447.94;4979940;28;20213;-69
2021/05/28 00:33:24;;;;;;;9.20;8.57;;;;;;;8.15;100.00;98449.91;4979345;28;20229;-71
2021/05/28 00:35:51;;;;;;;9.00;8.30;;;;;;;8.19;100.00;98452.09;4978610;28;20213;-71
2021/05/28 00:38:19;;;;;;;9.70;8.97;;;;;;;8.19;100.00;98462.66;4980086;28;20210;-71
2021/05/28 00:40:46;;;;;;;9.40;8.70;;;;;;;8.24;100.00;98457.81;4979032;28;20213;-71
2021/05/28 00:43:14;;;;;;;11.30;8.80;;;;;;;8.32;100.00;98451.84;4980188;28;20231;-69
2021/05/28 00:45:41;;;;;;;9.67;8.83;;;;;;;8.35;100.00;98458.66;4979994;28;20587;-71
2021/05/28 00:48:09;;;;;;;9.00;8.30;;;;;;;8.28;100.00;98455.72;4980133;28;20717;-71
2021/05/28 00:50:37;;;;;;;9.47;8.77;;;;;;;8.48;100.00;98458.38;4981585;28;20205;-71
2021/05/28 00:53:05;;;;;;;9.63;8.83;;;;;;;8.36;100.00;98455.06;4979954;28;20722;-71
2021/05/28 00:55:33;;;;;;;8.90;8.20;;;;;;;8.28;100.00;98454.88;4978334;28;20598;-71
2021/05/28 00:58:00;;;;;;;8.93;8.33;;;;;;;8.30;100.00;98443.22;4981372;28;20217;-71
2021/05/28 01:00:29;;;;;;;9.90;9.20;;;;;;;8.25;100.00;98451.56;4982620;28;20685;-71
2021/05/28 01:02:57;;;;;;;9.87;9.13;;;;;;;8.25;100.00;98454.19;4986401;28;20232;-70
2021/05/28 01:05:27;;;;;;;10.20;9.20;;;;;;;8.15;100.00;98450.72;4983791;28;20566;-70
2021/05/28 01:07:55;;;;;;;9.87;8.97;;;;;;;8.18;100.00;98449.63;4982969;28;20229;-71
2021/05/28 01:10:25;;;;;;;9.70;8.80;;;;;;;8.16;100.00;98446.28;4984126;28;20239;-70
2021/05/28 01:13:02;;;;;;;8.63;7.93;;;;;;;8.14;100.00;98443.75;4981790;28;20233;-71
2021/05/28 01:15:30;;;;;;;10.13;9.23;;;;;;;8.10;100.00;98451.13;4983376;28;20201;-71
2021/05/28 01:17:57;;;;;;;9.60;8.80;;;;;;;8.13;100.00;98446.53;4984541;28;20213;-70
2021/05/28 01:20:25;;;;;;;9.87;9.07;;;;;;;8.09;100.00;98446.81;4985176;28;20206;-72
2021/05/28 01:22:53;;;;;;;9.30;8.60;;;;;;;8.11;100.00;98449.31;4983138;28;20598;-69
2021/05/28 01:25:22;;;;;;;8.93;8.23;;;;;;;8.24;100.00;98449.06;4985606;28;20217;-71
2021/05/28 01:27:49;;;;;;;9.33;8.53;;;;;;;8.11;100.00;98438.75;4985941;28;20225;-71
2021/05/28 01:30:17;;;;;;;10.70;9.90;;;;;;;8.07;100.00;98448.75;4985281;28;20243;-71
2021/05/28 01:32:45;;;;;;;9.60;8.80;;;;;;;8.13;100.00;98444.75;4983791;28;20759;-71
2021/05/28 01:35:14;;;;;;;10.03;9.13;;;;;;;8.16;100.00;98459.47;4983927;28;20216;-70
2021/05/28 01:37:42;;;;;;;9.57;8.73;;;;;;;8.06;100.00;98454.19;4983008;28;20213;-71
2021/05/28 01:40:12;;;;;;;11.20;9.90;;;;;;;8.04;100.00;98454.31;4983310;28;20244;-71
2021/05/28 01:42:39;;;;;;;10.63;9.63;;;;;;;8.11;100.00;98460.69;4983150;28;20229;-71
2021/05/28 01:45:08;;;;;;;9.37;8.60;;;;;;;8.11;100.00;98457.25;4985134;28;20248;-70
2021/05/28 01:47:36;;;;;;;9.43;8.67;;;;;;;8.15;100.00;98457.81;4986079;28;20225;-70
2021/05/28 01:50:06;;;;;;;9.93;9.13;;;;;;;8.13;100.00;98465.00;4983454;28;20206;-71
2021/05/28 01:52:33;;;;;;;9.30;8.60;;;;;;;8.09;100.00;98465.28;4984270;28;20293;-71
2021/05/28 01:55:01;;;;;;;10.10;9.40;;;;;;;8.06;100.00;98462.09;4982662;28;20241;-71
2021/05/28 01:57:29;;;;;;;11.20;10.17;;;;;;;8.05;100.00;98466.53;4982187;28;20206;-72
2021/05/28 01:59:57;;;;;;;10.43;9.63;;;;;;;8.02;100.00;98458.88;4985351;28;20209;-71
2021/05/28 02:02:24;;;;;;;10.27;9.37;;;;;;;8.04;100.00;98464.03;4981116;28;20225;-72
2021/05/28 02:04:52;;;;;;;11.67;10.67;;;;;;;7.98;100.00;98468.06;4979208;28;20559;-72
2021/05/28 02:07:19;;;;;;;10.27;9.37;;;;;;;7.93;100.00;98468.44;4984471;28;20621;-71
2021/05/28 02:09:47;;;;;;;10.27;9.47;;;;;;;7.96;100.00;98470.84;4984655;28;20621;-70
2021/05/28 02:12:14;;;;;;;9.83;9.10;;;;;;;8.01;100.00;98464.31;4981423;28;20218;-70
2021/05/28 02:14:55;;;;;;;10.53;9.70;;;;;;;8.03;100.00;98467.66;4981589;28;20248;-72
2021/05/28 02:17:26;;;;;;;10.40;9.50;;;;;;;8.01;100.00;98465.13;4981742;28;20213;-71
2021/05/28 02:19:54;;;;;;;11.77;10.73;;;;;;;7.96;100.00;98462.06;4978252;28;20316;-71
2021/05/28 02:22:28;;;;;;;10.50;9.60;;;;;;;7.96;100.00;98462.06;4980810;28;20202;-70
2021/05/28 02:24:55;;;;;;;10.70;9.80;;;;;;;7.91;100.00;98451.91;4984354;28;20694;-71
2021/05/28 02:27:23;;;;;;;11.63;10.57;;;;;;;7.88;100.00;98459.28;4981913;28;20236;-71
2021/05/28 02:29:52;;;;;;;10.90;9.90;;;;;;;7.81;100.00;98453.69;4982157;28;20304;-70
2021/05/28 02:32:20;;;;;;;12.33;11.17;;;;;;;7.79;100.00;98458.28;4985314;28;20206;-70
2021/05/28 02:34:47;;;;;;;10.80;9.90;;;;;;;7.76;100.00;98459.38;4984210;28;20205;-71
2021/05/28 02:37:15;;;;;;;11.13;10.23;;;;;;;7.77;100.00;98449.66;4984389;28;20344;-70
2021/05/28 02:39:42;;;;;;;10.17;9.37;;;;;;;7.80;100.00;98452.88;4984074;28;20282;-71
2021/05/28 02:42:10;;;;;;;11.03;10.13;;;;;;;7.96;100.00;98446.25;4983123;28;20214;-70
2021/05/28 02:44:37;;;;;;;11.40;10.50;;;;;;;8.10;100.00;98439.75;4984285;28;20711;-70
2021/05/28 02:47:05;;;;;;;10.70;9.70;;;;;;;8.01;100.00;98438.75;4984004;28;20224;-70
2021/05/28 02:49:33;;;;;;;10.90;10.00;;;;;;;7.92;100.00;98447.50;4983223;28;20215;-72
2021/05/28 02:52:00;;;;;;;13.40;10.17;;;;;;;7.86;100.00;98458.59;4983799;28;20480;-70
2021/05/28 02:54:28;;;;;;;11.43;10.50;;;;;;;7.81;100.00;98466.91;4981956;28;20234;-71
2021/05/28 02:56:55;;;;;;;12.07;10.97;;;;;;;7.87;100.00;98463.72;4981734;28;20741;-70
2021/05/28 02:59:23;;;;;;;11.87;10.97;;;;;;;7.72;100.00;98473.81;4980982;28;20604;-70
2021/05/28 03:01:51;;;;;;;12.33;11.30;;;;;;;7.69;100.00;98474.06;4983603;28;20539;-71
2021/05/28 03:04:19;;;;;;;11.30;10.30;;;;;;;7.67;100.00;98468.09;4982740;28;20252;-70
2021/05/28 03:06:47;;;;;;;11.93;10.80;;;;;;;7.62;100.00;98465.88;4983066;28;20229;-70
2021/05/28 03:09:14;;;;;;;13.07;11.87;;;;;;;7.60;100.00;98472.25;4983493;28;20213;-70
2021/05/28 03:11:42;;;;;;;11.77;10.77;;;;;;;7.59;100.00;98473.22;4981352;28;20480;-71
2021/05/28 03:14:10;;;;;;;11.33;10.33;;;;;;;7.62;100.00;98476.44;4983744;28;20788;-70
2021/05/28 03:16:37;;;;;;;11.73;10.73;;;;;;;7.59;100.00;98483.75;4981059;28;20224;-71
2021/05/28 03:19:07;;;;;;;12.27;11.17;;;;;;;7.62;100.00;98486.13;4986699;28;20204;-70
2021/05/28 03:22:30;;;;;;;11.93;10.90;;;;;;;7.64;100.00;98482.41;4983362;28;20256;-70
2021/05/28 03:24:26;;;;;;;11.67;10.67;;;;;;;7.86;100.00;98482.34;4982576;28;20316;-70
2021/05/28 03:26:54;;;;;;;12.30;11.30;;;;;;;7.73;100.00;98477.28;4980775;28;20233;-71
2021/05/28 03:29:25;;;;;;;12.63;11.53;;;;;;;7.72;100.00;98494.09;4981936;28;20526;-70
2021/05/28 03:31:52;;;;;;;12.37;11.27;;;;;;;7.80;100.00;98494.25;4979446;28;20280;-71
2021/05/28 03:34:20;;;;;;;12.00;10.90;;;;;;;7.86;100.00;98495.53;4983688;28;20373;-71
2021/05/28 03:36:50;;;;;;;13.20;12.00;;;;;;;7.79;100.00;98501.34;4982747;28;20205;-71
2021/05/28 03:39:17;;;;;;;12.37;11.33;;;;;;;7.81;100.00;98495.91;4982814;28;20209;-71
2021/05/28 03:41:48;;;;;;;11.50;10.50;;;;;;;7.81;100.00;98503.84;4980240;28;20211;-72
2021/05/28 03:44:18;;;;;;;12.67;11.43;;;;;;;7.93;100.00;98501.94;4978023;28;20323;-72
2021/05/28 03:46:46;;;;;;;13.13;11.93;;;;;;;7.92;100.00;98510.81;4980226;28;20305;-69
2021/05/28 03:49:14;;;;;;;13.57;12.27;;;;;;;7.99;100.00;98504.03;4980856;28;20217;-69
2021/05/28 03:51:42;;;;;;;13.30;12.17;;;;;;;8.00;100.00;98510.97;4981472;28;20206;-72
2021/05/28 03:54:14;;;;;;;13.07;11.83;;;;;;;8.11;100.00;98513.50;4977945;28;20237;-70
2021/05/28 03:56:44;;;;;;;13.30;12.10;;;;;;;8.22;100.00;98515.19;4979388;28;20232;-70
2021/05/28 03:59:12;;;;;;;14.37;13.17;;;;;;;8.14;100.00;98516.84;4982118;28;20610;-71
2021/05/28 04:01:39;;;;;;;13.33;12.23;;;;;;;8.09;100.00;98511.97;4981817;28;20628;-70
2021/05/28 04:04:08;;;;;;;14.07;12.77;;;;;;;8.12;100.00;98519.63;4981611;28;20903;-71
2021/05/28 04:06:36;;;;;;;14.53;13.20;;;;;;;8.17;100.00;98519.22;4982501;28;20206;-71
2021/05/28 04:09:04;;;;;;;13.37;12.13;;;;;;;8.25;100.00;98527.31;4977978;28;20263;-70
2021/05/28 04:11:32;;;;;;;13.60;12.43;;;;;;;8.45;100.00;98522.88;4981553;28;20206;-70
2021/05/28 04:14:00;;;;;;;13.97;12.67;;;;;;;8.28;100.00;98526.19;4979952;28;20241;-70
2021/05/28 04:16:28;;;;;;;13.70;12.47;;;;;;;8.36;100.00;98529.00;4982067;28;20202;-70
2021/05/28 04:18:56;;;;;;;13.97;12.60;;;;;;;8.31;100.00;98520.63;4982218;28;20722;-71
2021/05/28 04:21:23;;;;;;;12.80;11.73;;;;;;;8.36;100.00;98524.53;4979196;28;20213;-68
2021/05/28 04:23:51;;;;;;;12.53;11.43;;;;;;;8.45;100.00;98522.03;4982570;28;20230;-70
2021/05/28 04:26:18;;;;;;;13.20;11.83;;;;;;;8.44;100.00;98521.22;4981007;28;20316;-71
2021/05/28 04:28:47;;;;;;;13.83;12.53;;;;;;;8.40;100.00;98518.00;4980617;28;21146;-69
2021/05/28 04:31:14;;;;;;;12.73;11.70;;;;;;;8.43;100.00;98521.34;4977596;28;20216;-68
2021/05/28 04:33:42;;;;;;;14.50;12.90;;;;;;;8.52;100.00;98515.25;4980654;28;20547;-69
2021/05/28 04:36:09;;;;;;;14.00;12.67;;;;;;;8.61;100.00;98513.59;4980640;28;20228;-70
2021/05/28 04:38:37;;;;;;;12.70;11.50;;;;;;;8.62;100.00;98513.47;4982502;28;20800;-68
2021/05/28 04:41:05;;;;;;;13.13;11.97;;;;;;;8.66;100.00;98517.50;4982380;28;20258;-69
2021/05/28 04:43:33;;;;;;;12.77;11.47;;;;;;;8.84;100.00;98514.16;4981292;28;20229;-68
2021/05/28 04:46:01;;;;;;;13.70;12.50;;;;;;;9.09;100.00;98522.50;4981585;28;20205;-68
2021/05/28 04:48:41;;;;;;;13.80;12.50;;;;;;;9.00;100.00;98525.97;4980985;28;20552;-69
2021/05/28 04:51:09;;;;;;;13.83;12.63;;;;;;;9.04;100.00;98525.53;4977179;28;20233;-68
2021/05/28 04:53:36;;;;;;;13.97;12.70;;;;;;;8.96;100.00;98528.91;4982185;28;20305;-68
2021/05/28 04:56:05;;;;;;;15.13;13.00;;;;;;;9.12;100.00;98525.69;4983175;28;20205;-70
2021/05/28 04:58:32;;;;;;;14.73;13.43;;;;;;;9.21;100.00;98528.47;4981689;28;20662;-70
2021/05/28 05:01:00;;;;;;;14.10;12.53;;;;;;;9.21;100.00;98529.28;4979722;28;20594;-70
2021/05/28 05:03:28;;;;;;;14.10;12.73;;;;;;;9.18;100.00;98526.91;4982310;28;20650;-70
2021/05/28 05:05:55;;;;;;;20.33;12.00;;;;;;;9.21;100.00;98531.09;4979607;28;20218;-70
2021/05/28 05:08:23;;;;;;;13.60;12.30;;;;;;;9.27;100.00;98527.88;4980071;28;20229;-71
2021/05/28 05:10:51;;;;;;;14.13;12.67;;;;;;;9.22;100.00;98533.59;4979390;28;20213;-70
2021/05/28 05:13:18;;;;;;;14.17;12.70;;;;;;;9.20;100.00;98526.78;4982592;28;20300;-70
2021/05/28 05:15:46;;;;;;;13.30;12.10;;;;;;;9.08;100.00;98534.84;4980346;28;20221;-70
2021/05/28 05:18:14;;;;;;;15.43;13.90;;;;;;;8.99;100.00;98527.78;4981018;28;20197;-70
2021/05/28 05:20:42;;;;;;;14.43;13.13;;;;;;;9.15;100.00;98536.97;4981076;28;20225;-68
2021/05/28 05:23:09;;;;;;;14.03;12.83;;;;;;;9.19;100.00;98533.06;4980320;28;20716;-71
2021/05/28 05:25:37;;;;;;;14.53;13.23;;;;;;;9.07;100.00;98541.13;4980185;28;20497;-69
2021/05/28 05:28:05;;;;;;;14.47;13.17;;;;;;;9.16;100.00;98544.75;4977854;28;20222;-70
2021/05/28 05:30:32;;;;;;;15.23;13.63;;;;;;;9.35;100.00;98543.03;4978714;28;20209;-69
2021/05/28 05:33:00;;;;;;;15.93;14.47;;;;;;;9.56;100.00;98543.66;4982308;28;20253;-69
2021/05/28 05:35:29;;;;;;;14.57;13.33;;;;;;;9.66;100.00;98545.44;4981736;28;20607;-70
2021/05/28 05:37:56;;;;;;;15.77;14.27;;;;;;;9.60;100.00;98551.31;4981673;28;20210;-69
2021/05/28 05:40:24;;;;;;;14.60;13.20;;;;;;;9.66;100.00;98550.75;4980456;28;20201;-68
2021/05/28 05:42:51;;;;;;;16.53;14.97;;;;;;;9.72;100.00;98558.13;4978630;28;20757;-68
2021/05/28 05:45:19;;;;;;;16.03;14.50;;;;;;;9.84;100.00;98549.00;4979470;28;20217;-69
2021/05/28 05:47:47;;;;;;;15.27;13.97;;;;;;;9.75;100.00;98555.19;4984885;28;20225;-68
2021/05/28 05:50:16;;;;;;;16.13;14.63;;;;;;;9.98;100.00;98558.28;4984411;28;20205;-67
2021/05/28 05:52:44;;;;;;;15.67;14.10;;;;;;;10.27;100.00;98549.38;4985413;28;20233;-70
2021/05/28 05:55:12;;;;;;;15.73;14.30;;;;;;;10.37;100.00;98551.13;4984333;28;20265;-68
2021/05/28 05:57:40;;;;;;;15.73;14.10;;;;;;;10.50;100.00;98558.75;4982215;28;20209;-69
2021/05/28 06:00:09;;;;;;;15.87;14.50;;;;;;;10.75;100.00;98553.66;4981649;28;20606;-69
2021/05/28 06:02:37;;;;;;;15.10;13.60;;;;;;;11.05;97.79;98552.47;4983365;28;20208;-69
2021/05/28 06:05:06;;;;;;;15.57;14.27;;;;;;;10.97;96.69;98558.53;4983033;28;20328;-69
2021/05/28 06:07:33;;;;;;;16.27;14.97;;;;;;;10.72;98.60;98557.47;4982609;28;20209;-70
2021/05/28 06:10:03;;;;;;;16.20;14.67;;;;;;;10.68;98.70;98556.13;4983244;28;20328;-69
2021/05/28 06:12:30;;;;;;;14.93;13.57;;;;;;;10.81;96.62;98556.56;4984533;28;20221;-68
2021/05/28 06:14:58;;;;;;;14.07;12.83;;;;;;;10.73;97.94;98563.59;4979475;28;20214;-69
2021/05/28 06:17:25;;;;;;;14.67;13.40;;;;;;;10.64;98.10;98558.22;4983104;28;20228;-69
2021/05/28 06:19:53;;;;;;;14.43;13.13;;;;;;;10.95;96.16;98557.00;4983316;28;20210;-68
2021/05/28 06:22:24;;;;;;;14.03;12.80;;;;;;;11.11;92.93;98566.91;4981729;28;20248;-67
2021/05/28 06:24:52;;;;;;;14.20;13.10;;;;;;;10.82;94.61;98570.66;4983360;28;20224;-69
2021/05/28 06:27:21;;;;;;;14.40;13.10;;;;;;;10.75;96.17;98561.63;4980579;28;20758;-69
2021/05/28 06:29:48;;;;;;;13.37;12.07;;;;;;;10.82;95.74;98574.13;4982349;28;20229;-69
2021/05/28 06:32:16;;;;;;;12.73;11.67;;;;;;;10.99;94.16;98572.47;4985280;28;20224;-70
2021/05/28 06:34:43;;;;;;;12.63;11.57;;;;;;;11.13;90.89;98572.91;4984979;28;20734;-68
2021/05/28 06:37:10;;;;;;;11.53;10.53;;;;;;;11.22;91.83;98579.09;4982512;28;20605;-69
2021/05/28 06:39:38;;;;;;;12.03;10.90;;;;;;;11.28;91.96;98582.00;4983107;28;20236;-71
2021/05/28 06:42:06;;;;;;;12.70;11.70;;;;;;;11.34;88.16;98577.06;4981396;28;20209;-70
2021/05/28 06:44:34;;;;;;;13.57;12.27;;;;;;;11.42;89.41;98577.09;4984687;28;20225;-69
2021/05/28 06:47:02;;;;;;;11.73;10.63;;;;;;;11.15;87.93;98573.56;4983677;28;20324;-68
2021/05/28 06:49:29;;;;;;;11.77;10.77;;;;;;;11.21;86.78;98578.28;4980703;28;20226;-70
2021/05/28 06:51:56;;;;;;;11.13;10.23;;;;;;;11.14;88.20;98577.22;4985466;28;20209;-69
2021/05/28 06:54:24;;;;;;;13.03;11.20;;;;;;;10.80;88.80;98580.59;4983638;28;20237;-68
2021/05/28 06:56:51;;;;;;;13.00;11.90;;;;;;;10.76;89.38;98587.16;4983312;28;20216;-69
2021/05/28 06:59:19;;;;;;;12.67;11.40;;;;;;;10.92;91.07;98594.44;4980449;28;20205;-71
2021/05/28 07:01:48;;;;;;;12.67;11.47;;;;;;;10.98;90.16;98588.50;4983958;28;20213;-68
2021/05/28 07:04:15;;;;;;;12.50;11.40;;;;;;;10.99;89.55;98590.22;4982514;28;20226;-67
2021/05/28 07:06:43;;;;;;;11.07;10.17;;;;;;;10.93;86.93;98591.63;4983738;28;20209;-71
2021/05/28 07:09:10;;;;;;;12.67;11.47;;;;;;;10.77;89.16;98592.31;4977418;28;20242;-67
2021/05/28 07:11:38;;;;;;;11.03;10.00;;;;;;;10.71;87.88;98591.09;4983116;28;20213;-67
2021/05/28 07:14:05;;;;;;;10.70;9.83;;;;;;;10.91;87.13;98592.75;4982431;28;20546;-66
2021/05/28 07:16:33;;;;;;;11.30;10.27;;;;;;;10.90;86.92;98596.41;4983047;28;20216;-68
2021/05/28 07:19:04;;;;;;;11.00;10.10;;;;;;;10.84;87.16;98592.56;4981911;28;20214;-69
2021/05/28 07:21:31;;;;;;;12.37;11.27;;;;;;;11.02;87.34;98595.22;4978619;28;20215;-67
2021/05/28 07:23:59;;;;;;;12.27;11.23;;;;;;;11.25;86.46;98603.53;4979346;28;20233;-67
2021/05/28 07:26:26;;;;;;;13.03;11.73;;;;;;;11.32;86.25;98603.72;4980414;28;20201;-68
2021/05/28 07:28:54;;;;;;;12.20;11.00;;;;;;;11.20;85.57;98608.47;4979849;28;20264;-67
2021/05/28 07:31:21;;;;;;;11.97;10.97;;;;;;;11.61;85.36;98607.09;4983465;28;20605;-69
2021/05/28 07:33:49;;;;;;;10.40;9.60;;;;;;;11.70;81.32;98608.81;4979623;28;20231;-68
2021/05/28 07:36:17;;;;;;;10.80;9.83;;;;;;;11.58;81.22;98610.88;4983291;28;20708;-69
2021/05/28 07:38:45;;;;;;;8.93;8.17;;;;;;;11.69;81.32;98617.78;4980862;28;20398;-67
2021/05/28 07:41:12;;;;;;;9.40;8.60;;;;;;;11.62;80.13;98606.13;4983908;28;20315;-68
2021/05/28 07:43:40;;;;;;;9.37;8.57;;;;;;;11.57;80.41;98614.53;4981790;28;20665;-68
2021/05/28 07:46:09;;;;;;;9.43;8.70;;;;;;;11.51;77.81;98612.50;4983686;28;20693;-69
2021/05/28 07:48:36;;;;;;;8.97;8.27;;;;;;;12.00;78.74;98617.31;4983087;28;20225;-68
2021/05/28 07:51:04;;;;;;;10.00;9.20;;;;;;;12.08;78.36;98617.38;4981972;28;20214;-69
2021/05/28 07:53:33;;;;;;;10.50;9.60;;;;;;;11.97;78.26;98617.63;4983001;28;20817;-69
2021/05/28 07:56:05;;;;;;;7.33;6.83;;;;;;;11.92;76.19;98620.75;4983858;28;20213;-68
2021/05/28 07:58:32;;;;;;;7.60;7.10;;;;;;;12.05;76.32;98615.03;4985539;28;20288;-69
2021/05/28 08:01:00;;;;;;;8.23;7.53;;;;;;;12.27;75.49;98612.78;4982443;28;20233;-69
2021/05/28 08:03:28;;;;;;;8.97;8.37;;;;;;;12.43;76.05;98614.69;4981074;28;20264;-67
2021/05/28 08:05:55;;;;;;;9.20;8.43;;;;;;;12.58;75.78;98606.94;4980966;28;20213;-68
2021/05/28 08:08:26;;;;;;;9.73;8.83;;;;;;;12.76;74.59;98603.31;4981582;28;20206;-68
2021/05/28 08:10:56;;;;;;;8.33;7.63;;;;;;;13.10;73.53;98603.19;4980882;28;20653;-70
2021/05/28 08:13:23;;;;;;;7.47;6.93;;;;;;;13.01;71.36;98599.69;4983164;28;20229;-69
2021/05/28 08:15:52;;;;;;;7.80;7.00;;;;;;;13.04;72.64;98598.53;4979884;28;20226;-69
2021/05/28 08:18:19;;;;;;;8.20;7.60;;;;;;;13.08;70.83;98612.34;4979388;28;20202;-69
2021/05/28 08:20:47;;;;;;;9.07;8.23;;;;;;;12.87;72.10;98609.13;4981620;28;20213;-67
2021/05/28 08:23:14;;;;;;;8.67;7.97;;;;;;;12.65;71.42;98623.06;4981739;28;20582;-67
2021/05/28 08:25:41;;;;;;;9.00;8.20;;;;;;;12.96;71.17;98614.50;4982809;28;20205;-70
2021/05/28 08:28:10;;;;;;;8.93;8.30;;;;;;;12.33;75.16;98625.47;4982227;28;20209;-68
2021/05/28 08:30:38;;;;;;;9.47;8.77;;;;;;;12.58;74.01;98623.72;4980408;28;20592;-69
2021/05/28 08:33:07;;;;;;;9.40;8.60;;;;;;;12.95;72.34;98623.47;4981565;28;20236;-68
2021/05/28 08:35:35;;;;;;;9.43;8.73;;;;;;;13.02;74.55;98616.50;4981896;28;20635;-68
2021/05/28 08:38:02;;;;;;;9.37;8.77;;;;;;;13.00;73.93;98618.50;4982819;28;20206;-67
2021/05/28 08:40:32;;;;;;;8.70;7.90;;;;;;;13.03;70.91;98615.50;4978975;28;20206;-69
2021/05/28 08:43:00;;;;;;;8.63;7.93;;;;;;;13.27;69.41;98622.66;4981005;28;20230;-70
2021/05/28 08:45:34;;;;;;;8.77;8.07;;;;;;;13.08;69.97;98620.34;4978087;28;20221;-69
2021/05/28 08:48:02;;;;;;;7.47;6.77;;;;;;;13.24;69.10;98612.34;4980533;28;20248;-69
2021/05/28 08:50:29;;;;;;;6.80;6.30;;;;;;;13.51;67.49;98606.88;4980179;28;20229;-67
2021/05/28 08:52:58;;;;;;;7.77;7.17;;;;;;;13.35;67.79;98613.00;4981735;28;20229;-67
2021/05/28 08:55:26;;;;;;;8.17;7.37;;;;;;;13.49;69.43;98614.22;4982074;28;20208;-68
2021/05/28 08:57:53;;;;;;;7.83;7.07;;;;;;;13.68;68.70;98613.03;4981345;28;20674;-68
2021/05/28 09:00:23;;;;;;;7.20;6.63;;;;;;;13.66;67.92;98615.03;4980132;28;20201;-71
2021/05/28 09:02:51;;;;;;;8.13;7.53;;;;;;;14.47;66.29;98609.63;4978364;28;20689;-67
2021/05/28 09:05:21;;;;;;;7.13;6.53;;;;;;;14.72;65.90;98604.19;4979526;28;20209;-69
2021/05/28 09:07:54;;;;;;;7.00;6.50;;;;;;;14.36;64.95;98610.00;4980150;28;20602;-70
2021/05/28 09:10:33;;;;;;;6.90;6.50;;;;;;;14.29;65.28;98617.88;4979471;28;20365;-70
2021/05/28 09:13:15;;;;;;;7.80;7.10;;;;;;;13.69;65.55;98614.69;4980775;28;20330;-71
2021/05/28 09:15:44;;;;;;;7.13;6.63;;;;;;;14.02;64.77;98617.28;4981723;28;20205;-69
2021/05/28 09:18:13;;;;;;;6.77;6.30;;;;;;;14.02;65.10;98610.13;4978598;28;20210;-71
2021/05/28 09:20:45;;;;;;;7.93;7.40;;;;;;;13.64;67.07;98620.53;4982345;28;20205;-70
2021/05/28 09:23:15;;;;;;;7.47;6.87;;;;;;;13.71;68.17;98618.00;4980561;28;20229;-68
2021/05/28 09:25:53;;;;;;;6.20;5.80;;;;;;;13.87;64.11;98618.00;4985410;28;20202;-70
2021/05/28 09:28:21;;;;;;;5.83;5.43;;;;;;;13.84;63.59;98612.16;4984439;28;20297;-70
2021/05/28 09:31:00;;;;;;;6.57;6.00;;;;;;;13.72;65.81;98617.00;4984571;28;20229;-70
2021/05/28 09:33:32;;;;;;;6.40;6.00;;;;;;;13.80;64.50;98617.00;4984850;28;20476;-70
2021/05/28 09:36:07;;;;;;;6.13;5.73;;;;;;;13.66;66.15;98612.34;4983431;28;20206;-67
2021/05/28 09:38:35;;;;;;;6.37;5.73;;;;;;;13.56;65.13;98610.72;4983703;28;20201;-68
2021/05/28 09:41:03;;;;;;;6.90;6.40;;;;;;;13.45;65.85;98609.22;4982813;28;21526;-69
2021/05/28 09:43:31;;;;;;;6.60;6.00;;;;;;;13.31;67.02;98597.38;4985089;28;20548;-68
2021/05/28 09:45:58;;;;;;;5.53;5.23;;;;;;;13.41;67.65;98599.88;4984634;28;20205;-69
2021/05/28 09:48:29;;;;;;;7.23;6.73;;;;;;;13.59;68.97;98613.03;4985348;28;20206;-67
2021/05/28 09:50:59;;;;;;;7.47;6.70;;;;;;;13.80;67.02;98614.31;4984664;28;20880;-68
2021/05/28 09:53:32;;;;;;;6.93;6.33;;;;;;;13.73;67.59;98610.69;4985657;28;20390;-67
2021/05/28 09:56:01;;;;;;;6.40;5.80;;;;;;;14.28;65.29;98613.53;4981200;28;20225;-68
2021/05/28 09:59:01;;;;;;;6.00;5.50;;;;;;;13.77;64.32;98611.19;4983169;28;20205;-70
2021/05/28 10:01:30;;;;;;;5.43;4.97;;;;;;;13.38;66.65;98608.19;4983271;28;20214;-69
2021/05/28 10:04:01;;;;;;;5.87;5.37;;;;;;;13.59;66.64;98615.69;4985069;28;20225;-70
2021/05/28 10:06:29;;;;;;;6.70;6.20;;;;;;;13.41;65.65;98601.69;4983078;28;20202;-69
2021/05/28 10:08:58;;;;;;;6.53;6.00;;;;;;;13.38;67.50;98602.88;4984501;28;20224;-69
2021/05/28 10:11:27;;;;;;;6.50;6.10;;;;;;;13.34;66.47;98608.69;4984463;28;20216;-70
2021/05/28 10:13:55;;;;;;;6.03;5.53;;;;;;;13.21;67.71;98602.03;4982067;28;20229;-69
2021/05/28 10:16:24;;;;;;;7.47;6.87;;;;;;;13.60;66.16;98609.38;4983033;28;21134;-70
2021/05/28 10:18:53;;;;;;;6.27;5.77;;;;;;;13.71;66.86;98607.34;4982929;28;20208;-70
2021/05/28 10:21:22;;;;;;;6.20;5.73;;;;;;;13.64;66.07;98611.69;4983874;28;20206;-70
2021/05/28 10:23:49;;;;;;;6.53;6.03;;;;;;;13.16;66.26;98607.84;4984861;28;20221;-70
2021/05/28 10:26:23;;;;;;;5.80;5.33;;;;;;;13.20;66.55;98597.72;4983268;28;20581;-70
2021/05/28 10:28:51;;;;;;;6.27;5.60;;;;;;;13.34;66.71;98601.56;4984867;28;20235;-68
2021/05/28 10:31:18;;;;;;;6.73;5.70;;;;;;;13.40;66.71;98595.56;4983834;28;20209;-70
2021/05/28 10:33:49;;;;;;;6.00;5.50;;;;;;;13.55;65.18;98606.38;4984313;28;20233;-67
2021/05/28 10:36:41;;;;;;;5.83;5.33;;;;;;;13.71;64.96;98610.00;4984318;28;20213;-70
2021/05/28 10:39:10;;;;;;;5.50;5.13;;;;;;;13.92;65.97;98604.16;4979816;28;20657;-70
2021/05/28 10:41:39;;;;;;;5.40;4.90;;;;;;;13.93;63.08;98608.47;4983818;28;20213;-70
2021/05/28 10:44:19;;;;;;;4.63;4.23;;;;;;;14.06;61.54;98604.47;4984873;28;20321;-70
2021/05/28 10:47:19;;;;;;;5.37;4.87;;;;;;;13.84;61.99;98609.50;4984422;28;20500;-70
2021/05/28 10:49:48;;;;;;;4.20;3.90;;;;;;;14.15;60.08;98604.22;4983874;28;20264;-69
2021/05/28 10:52:37;;;;;;;5.60;4.27;;;;;;;14.60;60.67;98609.88;4982145;28;20210;-70
2021/05/28 10:55:10;;;;;;;4.00;3.70;;;;;;;14.47;60.88;98604.28;4977257;28;20377;-68
2021/05/28 10:57:51;;;;;;;5.33;4.00;;;;;;;14.61;56.78;98610.72;4980542;28;20209;-69
2021/05/28 11:00:24;;;;;;;3.43;3.20;;;;;;;14.27;58.93;98606.56;4983779;28;20201;-70
2021/05/28 11:03:07;;;;;;;4.17;3.87;;;;;;;14.76;59.26;98606.31;4982667;28;20229;-71
2021/05/28 11:05:43;;;;;;;3.60;3.30;;;;;;;14.62;58.71;98615.88;4984045;28;20202;-70
2021/05/28 11:08:40;;;;;;;3.70;3.50;;;;;;;14.76;57.81;98617.00;4982798;28;20213;-71
2021/05/28 11:11:08;;;;;;;3.33;3.13;;;;;;;15.24;58.00;98604.50;4982823;28;20217;-71
2021/05/28 11:13:55;;;;;;;3.60;3.30;;;;;;;15.26;54.20;98599.81;4983663;28;20701;-70
2021/05/28 11:16:22;;;;;;;3.00;2.80;;;;;;;15.30;53.60;98598.44;4979933;28;20217;-69
2021/05/28 11:18:50;;;;;;;2.67;2.47;;;;;;;15.42;53.49;98588.97;4981423;28;20232;-70
2021/05/28 11:21:19;;;;;;;2.47;2.27;;;;;;;15.69;51.76;98585.88;4982696;28;20538;-69
2021/05/28 11:23:48;;;;;;;2.90;2.63;;;;;;;16.45;49.94;98588.38;4982005;28;20232;-68
2021/05/28 11:26:22;;;;;;;3.20;3.00;;;;;;;16.68;47.90;98586.59;4981038;28;20201;-68
2021/05/28 11:28:54;;;;;;;2.90;2.20;;;;;;;16.31;48.67;98579.41;4982010;28;20245;-69
2021/05/28 11:31:23;;;;;;;1.90;1.80;;;;;;;16.37;46.20;98587.69;4976274;28;20633;-68
2021/05/28 11:33:58;;;;;;;2.47;1.93;;;;;;;16.22;45.76;98582.34;4981079;28;20273;-69